Time;durP1;ratioP1;P1;durP2;ratioP2;P2;SDS_P1;SDS_P2;PMS_P1;PMS_P2;Temp;Humidity;BMP_temperature;BMP_pressure;BME280_temperature;BME280_humidity;BME280_pressure;Samples;Min_cycle;Max_cycle;Signal;HPM_P1;HPM_P2
2022/12/03 00:00:20;;;;;;;13.87;9.57;;;;;;;0.87;100.00;101328.34;701049;28;1113;-66
2022/12/03 00:00:40;;;;;;;14.32;9.93;;;;;;;0.85;100.00;101324.00;701715;28;1201;-66
2022/12/03 00:01:01;;;;;;;14.80;9.95;;;;;;;0.87;100.00;101328.34;700666;28;1404;-66
2022/12/03 00:01:21;;;;;;;14.23;9.67;;;;;;;0.84;100.00;101326.50;700841;28;992;-66
2022/12/03 00:01:41;;;;;;;13.45;9.38;;;;;;;0.82;100.00;101325.56;701805;28;1407;-65
2022/12/03 00:02:02;;;;;;;16.00;11.37;;;;;;;0.79;100.00;101323.72;701259;28;1129;-66
2022/12/03 00:02:22;;;;;;;15.67;11.43;;;;;;;0.80;100.00;101328.06;701503;28;1261;-66
2022/12/03 00:02:43;;;;;;;15.30;10.57;;;;;;;0.80;100.00;101327.16;701560;28;4414;-66
2022/12/03 00:03:03;;;;;;;15.33;10.53;;;;;;;0.81;100.00;101326.38;697735;28;1270;-64
2022/12/03 00:03:23;;;;;;;15.43;10.55;;;;;;;0.81;100.00;101332.38;698185;28;1224;-66
2022/12/03 00:03:44;;;;;;;15.57;10.03;;;;;;;0.79;100.00;101328.88;697831;28;1241;-66
2022/12/03 00:04:04;;;;;;;14.38;9.38;;;;;;;0.81;100.00;101324.66;700762;28;1656;-66
2022/12/03 00:04:24;;;;;;;14.03;9.43;;;;;;;0.83;100.00;101327.31;699089;28;1235;-66
2022/12/03 00:04:45;;;;;;;14.50;9.70;;;;;;;0.84;100.00;101329.97;699685;28;1351;-66
2022/12/03 00:05:05;;;;;;;14.35;9.98;;;;;;;0.82;100.00;101331.56;699531;28;1246;-66
2022/12/03 00:05:26;;;;;;;13.07;9.40;;;;;;;0.79;100.00;101331.44;693728;28;4357;-66
2022/12/03 00:05:46;;;;;;;14.83;9.23;;;;;;;0.82;100.00;101323.00;698947;28;1396;-67
2022/12/03 00:06:06;;;;;;;15.20;9.83;;;;;;;0.90;100.00;101329.38;690544;28;1348;-66
2022/12/03 00:06:28;;;;;;;13.75;9.27;;;;;;;0.92;100.00;101327.72;692895;28;1273;-67
2022/12/03 00:06:48;;;;;;;13.63;9.02;;;;;;;0.91;100.00;101320.81;690068;28;1456;-66
2022/12/03 00:07:09;;;;;;;14.07;9.23;;;;;;;0.91;100.00;101325.97;690589;28;1330;-65
2022/12/03 00:07:29;;;;;;;13.43;9.03;;;;;;;0.91;100.00;101323.38;688969;28;1226;-70
2022/12/03 00:07:49;;;;;;;12.55;8.85;;;;;;;0.99;100.00;101329.75;689454;28;1171;-66
2022/12/03 00:08:10;;;;;;;13.00;8.90;;;;;;;1.02;100.00;101324.78;693764;28;1327;-65
2022/12/03 00:08:30;;;;;;;12.48;8.75;;;;;;;1.12;100.00;101327.72;695135;28;4292;-66
2022/12/03 00:08:51;;;;;;;12.17;8.73;;;;;;;1.11;100.00;101329.44;698163;28;1308;-65
2022/12/03 00:09:11;;;;;;;12.82;8.57;;;;;;;1.06;100.00;101322.31;697569;28;1400;-66
2022/12/03 00:09:31;;;;;;;13.90;8.90;;;;;;;1.02;100.00;101324.78;698676;28;1348;-66
2022/12/03 00:09:52;;;;;;;12.90;8.70;;;;;;;0.98;100.00;101325.44;697483;28;1314;-66
2022/12/03 00:10:12;;;;;;;12.57;8.63;;;;;;;1.00;100.00;101318.66;696959;28;1462;-66
2022/12/03 00:10:32;;;;;;;12.20;8.63;;;;;;;1.14;100.00;101324.41;699929;28;1440;-66
2022/12/03 00:10:53;;;;;;;13.38;8.63;;;;;;;1.14;100.00;101326.13;699981;28;1530;-66
2022/12/03 00:11:13;;;;;;;12.40;8.40;;;;;;;1.18;100.00;101322.88;699013;28;1519;-65
2022/12/03 00:11:33;;;;;;;12.73;8.77;;;;;;;1.16;100.00;101321.91;700413;28;4263;-66
2022/12/03 00:11:54;;;;;;;12.57;8.90;;;;;;;1.06;100.00;101330.91;700318;28;1137;-65
2022/12/03 00:12:14;;;;;;;13.33;9.10;;;;;;;1.06;100.00;101324.91;700218;28;1155;-66
2022/12/03 00:12:35;;;;;;;13.00;8.67;;;;;;;1.11;100.00;101319.13;697945;28;1074;-65
2022/12/03 00:12:55;;;;;;;13.80;9.23;;;;;;;1.11;100.00;101323.38;698116;28;1184;-66
2022/12/03 00:13:15;;;;;;;13.63;9.32;;;;;;;1.06;100.00;101320.63;697280;28;1039;-65
2022/12/03 00:13:36;;;;;;;14.63;9.63;;;;;;;1.09;100.00;101323.31;697807;28;1335;-66
2022/12/03 00:13:56;;;;;;;13.80;8.77;;;;;;;1.19;100.00;101324.59;698348;28;1169;-66
2022/12/03 00:14:17;;;;;;;13.43;8.57;;;;;;;1.13;100.00;101327.78;699950;28;1354;-66
2022/12/03 00:14:37;;;;;;;13.60;8.85;;;;;;;1.11;100.00;101320.81;698640;28;4405;-66
2022/12/03 00:14:57;;;;;;;12.47;8.50;;;;;;;1.09;100.00;101325.91;695297;28;1213;-66
2022/12/03 00:15:18;;;;;;;13.32;8.55;;;;;;;1.13;100.00;101332.06;692648;28;1409;-65
2022/12/03 00:15:38;;;;;;;14.10;9.00;;;;;;;1.18;100.00;101322.88;693310;28;1309;-66
2022/12/03 00:15:58;;;;;;;13.47;9.37;;;;;;;1.13;100.00;101324.34;692410;28;5070;-65
2022/12/03 00:16:19;;;;;;;12.90;9.03;;;;;;;1.15;100.00;101325.28;690675;28;1155;-65
2022/12/03 00:16:39;;;;;;;12.07;8.37;;;;;;;1.14;100.00;101321.84;694938;28;1150;-65
2022/12/03 00:17:00;;;;;;;13.30;8.65;;;;;;;1.10;100.00;101321.66;695768;28;1194;-65
2022/12/03 00:17:20;;;;;;;13.00;8.87;;;;;;;1.06;100.00;101323.19;695564;28;1234;-66
2022/12/03 00:17:40;;;;;;;12.48;8.30;;;;;;;1.04;100.00;101318.78;695003;28;4240;-67
2022/12/03 00:18:01;;;;;;;12.67;8.53;;;;;;;1.02;100.00;101323.88;696324;28;1923;-66
2022/12/03 00:18:21;;;;;;;13.32;9.07;;;;;;;1.04;100.00;101324.84;690782;28;1108;-65
2022/12/03 00:18:42;;;;;;;13.50;8.70;;;;;;;1.01;100.00;101322.09;691625;28;1154;-66
2022/12/03 00:19:02;;;;;;;13.05;8.63;;;;;;;0.97;100.00;101320.19;691751;28;1112;-66
2022/12/03 00:19:22;;;;;;;13.17;8.83;;;;;;;0.96;100.00;101324.47;690736;28;1087;-65
2022/12/03 00:19:43;;;;;;;13.27;9.18;;;;;;;1.04;100.00;101323.94;693988;28;1183;-65
2022/12/03 00:20:06;;;;;;;13.03;9.23;;;;;;;1.05;100.00;101325.69;694479;28;1166;-66
2022/12/03 00:20:26;;;;;;;13.10;9.23;;;;;;;1.01;100.00;101315.28;692569;28;4497;-66
2022/12/03 00:20:47;;;;;;;13.57;9.13;;;;;;;1.10;100.00;101326.81;696997;28;1326;-66
2022/12/03 00:21:07;;;;;;;14.37;9.23;;;;;;;1.12;100.00;101325.16;696437;28;1494;-66
2022/12/03 00:21:27;;;;;;;13.52;9.23;;;;;;;1.12;100.00;101320.91;699404;28;1518;-66
2022/12/03 00:21:48;;;;;;;14.27;8.77;;;;;;;1.12;100.00;101326.06;699003;28;1458;-65
2022/12/03 00:22:08;;;;;;;12.98;8.57;;;;;;;1.09;100.00;101325.03;698939;28;1261;-66
2022/12/03 00:22:29;;;;;;;11.83;8.40;;;;;;;1.05;100.00;101325.69;695551;28;1281;-66
2022/12/03 00:22:49;;;;;;;13.27;9.10;;;;;;;1.01;100.00;101322.09;695565;28;1241;-66
2022/12/03 00:23:10;;;;;;;13.15;9.02;;;;;;;0.96;100.00;101323.63;695649;28;1226;-66
2022/12/03 00:23:30;;;;;;;12.73;8.70;;;;;;;0.93;100.00;101326.94;692714;28;4281;-66
2022/12/03 00:23:50;;;;;;;12.73;8.60;;;;;;;1.01;100.00;101325.56;694008;28;1307;-66
2022/12/03 00:24:11;;;;;;;12.85;8.80;;;;;;;1.02;100.00;101319.63;696193;28;1517;-66
2022/12/03 00:24:31;;;;;;;12.83;9.00;;;;;;;1.00;100.00;101325.50;696936;28;1447;-66
2022/12/03 00:24:52;;;;;;;12.75;8.93;;;;;;;1.12;100.00;101323.47;695445;28;1505;-65
2022/12/03 00:25:12;;;;;;;12.50;8.50;;;;;;;1.22;100.00;101321.28;694746;28;1349;-66
2022/12/03 00:25:32;;;;;;;13.27;8.73;;;;;;;1.20;100.00;101323.81;694223;28;1222;-66
2022/12/03 00:25:53;;;;;;;12.57;8.63;;;;;;;1.13;100.00;101325.22;694526;28;1316;-66
2022/12/03 00:26:13;;;;;;;13.10;8.73;;;;;;;1.14;100.00;101323.53;690347;28;1591;-66
2022/12/03 00:26:33;;;;;;;13.25;9.13;;;;;;;1.10;100.00;101322.53;690666;28;4314;-66
2022/12/03 00:26:54;;;;;;;11.97;8.57;;;;;;;1.08;100.00;101324.16;694100;28;1269;-66
2022/12/03 00:27:14;;;;;;;12.40;8.38;;;;;;;1.02;100.00;101318.72;693998;28;1171;-66
2022/12/03 00:27:35;;;;;;;12.80;8.40;;;;;;;1.00;100.00;101330.66;692862;28;1115;-66
2022/12/03 00:27:55;;;;;;;14.13;10.05;;;;;;;1.03;100.00;101330.78;693958;28;1111;-66
2022/12/03 00:28:15;;;;;;;13.77;9.80;;;;;;;1.01;100.00;101327.25;694520;28;1175;-65
2022/12/03 00:28:36;;;;;;;13.10;9.33;;;;;;;0.99;100.00;101319.47;694411;28;1138;-66
2022/12/03 00:28:56;;;;;;;12.65;8.63;;;;;;;0.98;100.00;101325.44;693762;28;1212;-65
2022/12/03 00:29:17;;;;;;;12.73;8.40;;;;;;;0.99;100.00;101321.16;695587;28;1129;-66
2022/12/03 00:29:37;;;;;;;13.40;8.85;;;;;;;1.07;100.00;101321.53;696289;28;4289;-66
2022/12/03 00:29:57;;;;;;;13.07;8.97;;;;;;;1.11;100.00;101314.00;696400;28;1174;-66
2022/12/03 00:30:18;;;;;;;13.05;8.48;;;;;;;1.19;100.00;101322.94;697312;28;1130;-65
2022/12/03 00:30:38;;;;;;;11.87;8.00;;;;;;;1.18;100.00;101310.00;700365;28;1209;-66
2022/12/03 00:30:58;;;;;;;12.60;8.70;;;;;;;1.13;100.00;101316.63;698918;28;907;-66
2022/12/03 00:31:22;;;;;;;12.73;8.70;;;;;;;1.13;100.00;101311.47;699508;28;1237;-67
2022/12/03 00:31:44;;;;;;;12.77;8.80;;;;;;;1.10;100.00;101316.50;699795;28;1243;-66
2022/12/03 00:32:04;;;;;;;13.02;8.88;;;;;;;1.08;100.00;101310.38;699836;28;1185;-66
2022/12/03 00:32:25;;;;;;;13.70;8.77;;;;;;;1.08;100.00;101311.28;699384;28;1132;-66
2022/12/03 00:32:45;;;;;;;12.73;8.43;;;;;;;1.05;100.00;101316.28;692381;28;4275;-66
2022/12/03 00:33:06;;;;;;;13.03;8.70;;;;;;;1.01;100.00;101316.94;693562;28;1192;-65
2022/12/03 00:33:26;;;;;;;13.15;8.68;;;;;;;0.98;100.00;101311.66;692796;28;1008;-66
2022/12/03 00:33:46;;;;;;;12.87;8.70;;;;;;;0.97;100.00;101309.91;692509;28;1405;-66
2022/12/03 00:34:07;;;;;;;13.03;8.53;;;;;;;0.97;100.00;101312.47;695053;28;1234;-66
2022/12/03 00:34:27;;;;;;;13.03;8.63;;;;;;;1.00;100.00;101308.34;694782;28;1186;-66
2022/12/03 00:34:47;;;;;;;14.00;9.10;;;;;;;1.12;100.00;101314.84;697757;28;1535;-67
2022/12/03 00:35:09;;;;;;;14.13;8.85;;;;;;;1.26;100.00;101311.22;695885;28;1296;-65
2022/12/03 00:35:29;;;;;;;13.10;8.60;;;;;;;1.26;100.00;101308.63;698641;28;4823;-66
2022/12/03 00:35:49;;;;;;;12.40;8.37;;;;;;;1.23;100.00;101313.63;696214;28;1387;-66
2022/12/03 00:36:10;;;;;;;12.45;8.20;;;;;;;1.24;100.00;101315.41;688991;28;1329;-66
2022/12/03 00:36:30;;;;;;;12.57;8.33;;;;;;;1.22;100.00;101313.56;692999;28;1303;-66
2022/12/03 00:36:50;;;;;;;11.93;8.25;;;;;;;1.29;100.00;101319.06;693846;28;1231;-66
2022/12/03 00:37:11;;;;;;;12.20;8.23;;;;;;;1.31;100.00;101309.69;689627;28;1318;-66
2022/12/03 00:37:33;;;;;;;12.10;8.15;;;;;;;1.40;100.00;101316.06;690259;28;1332;-66
2022/12/03 00:37:54;;;;;;;11.80;7.97;;;;;;;1.31;100.00;101311.41;693497;28;1963;-65
2022/12/03 00:38:15;;;;;;;11.25;7.40;;;;;;;1.32;100.00;101314.03;693954;28;1369;-66
2022/12/03 00:38:35;;;;;;;11.82;7.85;;;;;;;1.35;100.00;101315.88;693151;28;4305;-66
2022/12/03 00:38:55;;;;;;;11.83;8.23;;;;;;;1.34;100.00;101312.44;695643;28;1193;-66
2022/12/03 00:39:16;;;;;;;11.80;8.10;;;;;;;1.38;100.00;101321.16;696439;28;1122;-66
2022/12/03 00:39:36;;;;;;;12.13;8.10;;;;;;;1.36;100.00;101312.50;694845;28;1531;-66
2022/12/03 00:39:56;;;;;;;12.05;8.20;;;;;;;1.29;100.00;101316.50;694787;28;1127;-66
2022/12/03 00:40:17;;;;;;;12.43;8.00;;;;;;;1.26;100.00;101316.38;695074;28;1154;-66
2022/12/03 00:40:37;;;;;;;12.57;8.23;;;;;;;1.20;100.00;101313.50;691270;28;1218;-66
2022/12/03 00:40:58;;;;;;;12.77;8.18;;;;;;;1.14;100.00;101318.41;689856;28;1244;-66
2022/12/03 00:41:18;;;;;;;12.23;7.90;;;;;;;1.23;100.00;101315.34;689885;28;1116;-66
2022/12/03 00:41:38;;;;;;;12.98;8.07;;;;;;;1.21;100.00;101312.69;691882;28;4415;-66
2022/12/03 00:41:59;;;;;;;13.00;8.40;;;;;;;1.27;100.00;101317.22;693217;28;1246;-66
2022/12/03 00:42:19;;;;;;;11.80;7.72;;;;;;;1.24;100.00;101310.25;693288;28;1130;-65
2022/12/03 00:42:39;;;;;;;12.10;7.83;;;;;;;1.27;100.00;101314.66;693975;28;1012;-65
2022/12/03 00:43:00;;;;;;;12.43;7.90;;;;;;;1.23;100.00;101312.75;693218;28;1597;-66
2022/12/03 00:43:20;;;;;;;11.73;7.80;;;;;;;1.27;100.00;101319.81;693167;28;1285;-66
2022/12/03 00:43:40;;;;;;;11.63;7.57;;;;;;;1.30;100.00;101319.94;693476;28;1076;-66
2022/12/03 00:44:01;;;;;;;11.38;7.32;;;;;;;1.31;100.00;101307.13;690365;28;1135;-66
2022/12/03 00:44:21;;;;;;;11.57;7.37;;;;;;;1.28;100.00;101314.72;688178;28;1109;-66
2022/12/03 00:44:41;;;;;;;11.47;7.80;;;;;;;1.23;100.00;101323.94;688157;28;4256;-66
2022/12/03 00:45:03;;;;;;;11.43;7.32;;;;;;;1.23;100.00;101317.91;691039;28;1080;-66
2022/12/03 00:45:24;;;;;;;11.60;7.93;;;;;;;1.23;100.00;101315.34;690659;28;1097;-66
2022/12/03 00:45:44;;;;;;;11.50;8.23;;;;;;;1.25;100.00;101317.16;687770;28;1402;-66
2022/12/03 00:46:04;;;;;;;11.52;8.27;;;;;;;1.23;100.00;101308.47;691114;28;1222;-66
2022/12/03 00:46:25;;;;;;;11.83;7.80;;;;;;;1.25;100.00;101312.00;693684;28;1055;-66
2022/12/03 00:46:46;;;;;;;11.75;7.68;;;;;;;1.32;100.00;101316.63;690422;28;1178;-66
2022/12/03 00:47:06;;;;;;;11.45;7.88;;;;;;;1.37;100.00;101309.06;690384;28;1159;-67
2022/12/03 00:47:26;;;;;;;12.23;8.00;;;;;;;1.34;100.00;101312.44;690143;28;4321;-66
2022/12/03 00:47:47;;;;;;;12.05;7.63;;;;;;;1.40;100.00;101316.97;692361;28;1138;-66
2022/12/03 00:48:07;;;;;;;11.93;7.90;;;;;;;1.46;100.00;101313.75;692555;28;1096;-66
2022/12/03 00:48:27;;;;;;;10.77;7.53;;;;;;;1.40;100.00;101310.91;691194;28;1136;-67
2022/12/03 00:48:48;;;;;;;12.00;7.78;;;;;;;1.34;100.00;101314.09;690962;28;1199;-66
2022/12/03 00:49:08;;;;;;;12.70;8.43;;;;;;;1.29;100.00;101313.03;694488;28;1194;-67
2022/12/03 00:49:29;;;;;;;12.55;8.35;;;;;;;1.24;100.00;101307.66;694080;28;1285;-66
2022/12/03 00:49:49;;;;;;;12.53;7.83;;;;;;;1.23;100.00;101313.63;693615;28;1446;-66
2022/12/03 00:50:10;;;;;;;11.82;7.80;;;;;;;1.25;100.00;101312.00;694521;28;1241;-66
2022/12/03 00:50:30;;;;;;;11.73;7.97;;;;;;;1.22;100.00;101321.28;694993;28;4424;-66
2022/12/03 00:50:51;;;;;;;12.13;7.90;;;;;;;1.15;100.00;101305.59;698095;28;1134;-67
2022/12/03 00:51:11;;;;;;;12.55;7.88;;;;;;;1.11;100.00;101314.00;694546;28;1231;-67
2022/12/03 00:51:32;;;;;;;12.73;8.67;;;;;;;1.10;100.00;101316.50;696285;28;1271;-66
2022/12/03 00:51:52;;;;;;;12.23;8.60;;;;;;;1.06;100.00;101317.19;694152;28;1340;-66
2022/12/03 00:52:12;;;;;;;12.43;8.37;;;;;;;1.04;100.00;101311.97;695052;28;1160;-66
2022/12/03 00:52:33;;;;;;;11.18;7.40;;;;;;;1.04;100.00;101311.06;693204;28;1305;-67
2022/12/03 00:52:53;;;;;;;11.33;7.43;;;;;;;1.05;100.00;101307.69;695123;28;1506;-66
2022/12/03 00:53:13;;;;;;;12.63;8.23;;;;;;;1.04;100.00;101311.97;694635;28;1296;-66
2022/12/03 00:53:34;;;;;;;12.32;8.48;;;;;;;1.05;100.00;101312.84;693995;28;4262;-66
2022/12/03 00:53:54;;;;;;;11.53;8.37;;;;;;;1.04;100.00;101313.63;694898;28;1128;-66
2022/12/03 00:54:15;;;;;;;11.20;7.67;;;;;;;1.08;100.00;101311.28;694138;28;1016;-66
2022/12/03 00:54:35;;;;;;;11.90;7.27;;;;;;;1.21;100.00;101316.97;692647;28;1306;-66
2022/12/03 00:54:55;;;;;;;12.50;7.82;;;;;;;1.19;100.00;101322.03;692927;28;1278;-66
2022/12/03 00:55:16;;;;;;;12.37;7.77;;;;;;;1.16;100.00;101314.19;692800;28;918;-66
2022/12/03 00:55:36;;;;;;;11.98;7.93;;;;;;;1.12;100.00;101313.19;691487;28;1128;-66
2022/12/03 00:55:57;;;;;;;11.30;7.80;;;;;;;1.10;100.00;101312.22;692439;28;1294;-66
2022/12/03 00:56:17;;;;;;;11.17;7.47;;;;;;;1.04;100.00;101314.53;689427;28;941;-66
2022/12/03 00:56:37;;;;;;;11.30;7.65;;;;;;;1.02;100.00;101314.47;691584;28;4446;-66
2022/12/03 00:56:58;;;;;;;11.40;7.47;;;;;;;1.01;100.00;101312.69;691899;28;1060;-66
2022/12/03 00:57:18;;;;;;;11.63;7.70;;;;;;;1.01;100.00;101314.38;692045;28;1066;-66
2022/12/03 00:57:38;;;;;;;11.60;7.60;;;;;;;0.99;100.00;101316.00;692633;28;1162;-66
2022/12/03 00:57:59;;;;;;;11.75;7.50;;;;;;;0.99;100.00;101316.00;692348;28;1981;-66
2022/12/03 00:58:19;;;;;;;11.43;7.60;;;;;;;0.97;100.00;101310.81;694980;28;895;-66
2022/12/03 00:58:40;;;;;;;11.18;7.25;;;;;;;1.01;100.00;101314.38;695753;28;1064;-66
2022/12/03 00:59:00;;;;;;;11.63;7.60;;;;;;;1.04;100.00;101314.53;694806;28;1198;-66
2022/12/03 00:59:20;;;;;;;12.50;7.78;;;;;;;1.04;100.00;101316.22;691390;28;1259;-66
2022/12/03 00:59:41;;;;;;;12.03;7.50;;;;;;;1.06;100.00;101320.63;692341;28;4607;-66
2022/12/03 01:00:03;;;;;;;11.33;7.53;;;;;;;1.09;100.00;101309.56;692300;28;1238;-66
2022/12/03 01:00:24;;;;;;;12.05;8.07;;;;;;;1.08;100.00;101312.97;695771;28;1054;-66
2022/12/03 01:00:44;;;;;;;11.48;7.78;;;;;;;1.05;100.00;101315.41;695427;28;1342;-66
2022/12/03 01:01:05;;;;;;;11.13;7.50;;;;;;;1.01;100.00;101310.13;694839;28;1392;-67
2022/12/03 01:01:25;;;;;;;11.45;7.63;;;;;;;1.00;100.00;101316.09;695290;28;1034;-66
2022/12/03 01:01:45;;;;;;;12.17;7.63;;;;;;;1.05;100.00;101308.56;694719;28;1122;-66
2022/12/03 01:02:06;;;;;;;11.40;7.63;;;;;;;1.04;100.00;101311.97;693995;28;1587;-65
2022/12/03 01:02:26;;;;;;;11.15;7.82;;;;;;;1.04;100.00;101316.22;690766;28;4459;-66
2022/12/03 01:02:46;;;;;;;11.63;7.73;;;;;;;1.01;100.00;101312.69;694823;28;1255;-67
2022/12/03 01:03:07;;;;;;;12.25;7.80;;;;;;;1.08;100.00;101311.28;694636;28;1351;-66
2022/12/03 01:03:27;;;;;;;11.97;7.93;;;;;;;1.10;100.00;101316.50;694812;28;1071;-66
2022/12/03 01:03:47;;;;;;;10.97;7.80;;;;;;;1.15;100.00;101308.16;694690;28;1282;-66
2022/12/03 01:04:08;;;;;;;10.77;7.40;;;;;;;1.17;100.00;101313.38;694981;28;1388;-66
2022/12/03 01:04:28;;;;;;;10.53;7.07;;;;;;;1.17;100.00;101315.94;688667;28;1281;-66
2022/12/03 01:04:49;;;;;;;11.70;7.43;;;;;;;1.14;100.00;101314.13;689475;28;1194;-66
2022/12/03 01:05:09;;;;;;;10.63;7.40;;;;;;;1.13;100.00;101311.47;690437;28;1155;-66
2022/12/03 01:05:29;;;;;;;10.67;7.47;;;;;;;1.16;100.00;101306.44;688951;28;4568;-66
2022/12/03 01:05:50;;;;;;;10.93;7.30;;;;;;;1.26;100.00;101308.63;689419;28;1226;-66
2022/12/03 01:06:10;;;;;;;10.80;7.30;;;;;;;1.24;100.00;101309.38;690556;28;1147;-66
2022/12/03 01:06:30;;;;;;;10.83;7.43;;;;;;;1.18;100.00;101316.00;694215;28;1350;-66
2022/12/03 01:06:51;;;;;;;11.33;7.70;;;;;;;1.15;100.00;101309.84;695246;28;1230;-66
2022/12/03 01:07:11;;;;;;;11.00;7.47;;;;;;;1.14;100.00;101313.25;693846;28;1166;-65
2022/12/03 01:07:32;;;;;;;10.43;7.20;;;;;;;1.11;100.00;101313.09;691761;28;1052;-66
2022/12/03 01:07:52;;;;;;;10.60;7.13;;;;;;;1.08;100.00;101308.72;692352;28;1056;-66
2022/12/03 01:08:14;;;;;;;10.05;7.13;;;;;;;1.09;100.00;101315.59;691682;28;1249;-67
2022/12/03 01:08:34;;;;;;;10.43;7.47;;;;;;;1.11;100.00;101307.94;691055;28;4370;-66
2022/12/03 01:08:55;;;;;;;10.98;7.43;;;;;;;1.10;100.00;101319.06;691898;28;1156;-66
2022/12/03 01:09:15;;;;;;;11.13;7.33;;;;;;;1.08;100.00;101312.97;693083;28;1040;-66
2022/12/03 01:09:35;;;;;;;11.05;7.38;;;;;;;1.06;100.00;101309.44;693541;28;1152;-66
2022/12/03 01:09:56;;;;;;;11.10;7.37;;;;;;;1.08;100.00;101313.84;694422;28;1439;-66
2022/12/03 01:10:16;;;;;;;10.30;7.10;;;;;;;1.13;100.00;101319.19;698100;28;1074;-66
2022/12/03 01:10:36;;;;;;;11.38;7.70;;;;;;;1.17;100.00;101315.94;697095;28;1234;-67
2022/12/03 01:10:57;;;;;;;10.83;7.40;;;;;;;1.17;100.00;101315.94;696826;28;1008;-66
2022/12/03 01:11:36;;;;;;;10.95;7.25;;;;;;;1.14;100.00;101318.41;696442;28;1039;-66
2022/12/03 01:11:56;;;;;;;10.57;7.13;;;;;;;1.12;100.00;101310.59;696592;28;5013;-66
2022/12/03 01:12:17;;;;;;;11.23;7.10;;;;;;;1.12;100.00;101312.28;693469;28;3240;-66
2022/12/03 01:12:37;;;;;;;11.82;7.60;;;;;;;1.14;100.00;101314.13;694742;28;1452;-66
2022/12/03 01:12:58;;;;;;;10.53;7.17;;;;;;;1.13;100.00;101316.63;693819;28;1261;-66
2022/12/03 01:13:18;;;;;;;12.07;7.70;;;;;;;1.11;100.00;101314.00;695113;28;1055;-66
2022/12/03 01:13:38;;;;;;;11.57;7.43;;;;;;;1.06;100.00;101315.47;695417;28;1329;-66
2022/12/03 01:13:58;;;;;;;11.35;7.18;;;;;;;1.06;100.00;101312.03;693843;28;1238;-66
2022/12/03 01:14:19;;;;;;;11.00;7.43;;;;;;;1.07;100.00;101313.78;695171;28;1110;-66
2022/12/03 01:14:39;;;;;;;11.45;7.97;;;;;;;1.05;100.00;101315.41;694751;28;4491;-66
2022/12/03 01:15:00;;;;;;;10.33;7.20;;;;;;;1.02;100.00;101316.16;693767;28;1475;-66
2022/12/03 01:15:20;;;;;;;10.53;7.20;;;;;;;0.98;100.00;101312.56;694373;28;1393;-66
2022/12/03 01:15:40;;;;;;;11.37;7.40;;;;;;;1.06;100.00;101322.31;694405;28;1274;-66
2022/12/03 01:16:01;;;;;;;11.07;7.30;;;;;;;1.06;100.00;101310.31;695420;28;5222;-67
2022/12/03 01:16:21;;;;;;;11.13;7.63;;;;;;;1.05;100.00;101317.97;694035;28;1118;-66
2022/12/03 01:16:42;;;;;;;11.00;7.43;;;;;;;1.04;100.00;101321.34;694939;28;1242;-66
2022/12/03 01:17:03;;;;;;;11.43;7.35;;;;;;;1.08;100.00;101313.84;691425;28;1541;-66
2022/12/03 01:17:23;;;;;;;11.77;8.00;;;;;;;1.09;100.00;101319.88;691474;28;1147;-65
2022/12/03 01:17:43;;;;;;;11.03;7.20;;;;;;;1.09;100.00;101322.44;695080;28;4422;-66
2022/12/03 01:18:04;;;;;;;10.68;7.28;;;;;;;1.05;100.00;101317.97;693080;28;1958;-66
2022/12/03 01:18:24;;;;;;;10.97;7.43;;;;;;;1.04;100.00;101318.78;690598;28;1360;-66
2022/12/03 01:18:45;;;;;;;10.55;7.00;;;;;;;1.04;100.00;101316.22;690152;28;1135;-66
2022/12/03 01:19:07;;;;;;;10.47;7.10;;;;;;;1.02;100.00;101313.56;690298;28;1231;-66
2022/12/03 01:19:27;;;;;;;11.02;7.25;;;;;;;1.00;100.00;101317.78;687682;28;1396;-67
2022/12/03 01:19:51;;;;;;;11.25;7.30;;;;;;;1.00;100.00;101316.09;691038;28;2006;-66
2022/12/03 01:20:11;;;;;;;10.95;7.32;;;;;;;1.01;100.00;101311.81;692512;28;1149;-66
2022/12/03 01:20:32;;;;;;;10.53;7.53;;;;;;;1.01;100.00;101314.38;690904;28;4289;-66
2022/12/03 01:20:52;;;;;;;10.55;7.53;;;;;;;1.00;100.00;101318.66;691772;28;1350;-66
2022/12/03 01:21:13;;;;;;;11.20;7.60;;;;;;;0.99;100.00;101316.88;692841;28;1260;-67
2022/12/03 01:21:33;;;;;;;10.82;7.35;;;;;;;0.96;100.00;101318.47;694392;28;1230;-66
2022/12/03 01:21:54;;;;;;;10.60;7.33;;;;;;;0.96;100.00;101319.34;692927;28;1473;-66
2022/12/03 01:22:14;;;;;;;11.13;7.50;;;;;;;1.00;100.00;101315.22;691415;28;1593;-67
2022/12/03 01:22:35;;;;;;;11.40;7.68;;;;;;;0.99;100.00;101318.59;694381;28;986;-66
2022/12/03 01:22:55;;;;;;;11.07;7.20;;;;;;;0.98;100.00;101317.72;695645;28;1208;-68
2022/12/03 01:23:16;;;;;;;11.23;7.40;;;;;;;1.00;100.00;101313.50;694976;28;1265;-66
2022/12/03 01:23:36;;;;;;;11.20;7.33;;;;;;;0.99;100.00;101319.47;693992;28;4485;-66
2022/12/03 01:23:57;;;;;;;11.05;7.45;;;;;;;0.98;100.00;101319.41;692541;28;1424;-67
2022/12/03 01:24:18;;;;;;;11.53;7.63;;;;;;;0.96;100.00;101319.34;692628;28;1314;-66
2022/12/03 01:24:39;;;;;;;10.60;7.00;;;;;;;0.96;100.00;101314.19;693183;28;1226;-66
2022/12/03 01:24:59;;;;;;;10.17;6.90;;;;;;;0.98;100.00;101317.72;696016;28;1170;-67
2022/12/03 01:25:19;;;;;;;10.80;7.22;;;;;;;0.99;100.00;101316.88;694327;28;1309;-67
2022/12/03 01:25:40;;;;;;;10.33;7.27;;;;;;;1.00;100.00;101313.50;694798;28;1096;-66
2022/12/03 01:26:00;;;;;;;10.55;7.45;;;;;;;1.02;100.00;101319.63;697654;28;1201;-66
2022/12/03 01:26:20;;;;;;;10.90;7.67;;;;;;;1.00;100.00;101316.09;695386;28;1174;-66
2022/12/03 01:26:41;;;;;;;10.13;7.20;;;;;;;0.98;100.00;101317.72;694897;28;4259;-66
2022/12/03 01:27:01;;;;;;;10.17;7.13;;;;;;;0.95;100.00;101317.56;691360;28;1164;-67
2022/12/03 01:27:22;;;;;;;10.30;6.95;;;;;;;0.98;100.00;101316.81;689536;28;1152;-66
2022/12/03 01:27:42;;;;;;;10.67;6.93;;;;;;;1.13;100.00;101316.63;691181;28;1488;-66
2022/12/03 01:28:03;;;;;;;10.43;7.20;;;;;;;1.18;100.00;101323.75;690290;28;1273;-66
2022/12/03 01:28:23;;;;;;;10.63;7.00;;;;;;;1.17;100.00;101319.41;695480;28;1206;-66
2022/12/03 01:28:44;;;;;;;10.93;7.40;;;;;;;1.18;100.00;101318.59;689862;28;1449;-66
2022/12/03 01:29:05;;;;;;;9.90;7.27;;;;;;;1.17;100.00;101321.09;690450;28;1274;-66
2022/12/03 01:29:25;;;;;;;10.30;7.25;;;;;;;1.24;100.00;101314.53;690607;28;1321;-66
2022/12/03 01:29:46;;;;;;;10.73;7.32;;;;;;;1.34;100.00;101319.25;692958;28;4554;-66
2022/12/03 01:30:08;;;;;;;10.85;7.20;;;;;;;1.30;100.00;101309.63;692581;28;1503;-67
2022/12/03 01:32:15;;;;;;;11.30;7.22;;;;;;;1.27;100.00;101320.69;694460;28;1422;-67
2022/12/03 01:32:27;;;;;;;10.73;7.18;;;;;;;1.09;100.00;101313.03;694704;28;4593;-66
2022/12/03 01:32:48;;;;;;;10.90;7.30;;;;;;;1.08;100.00;101318.09;699074;28;1371;-66
2022/12/03 01:33:08;;;;;;;11.17;7.40;;;;;;;1.05;100.00;101320.56;699080;28;1249;-66
2022/12/03 01:33:29;;;;;;;11.52;7.55;;;;;;;1.02;100.00;101317.03;699147;28;1135;-66
2022/12/03 01:33:49;;;;;;;11.90;7.43;;;;;;;1.02;100.00;101316.16;696461;28;1087;-66
2022/12/03 01:34:10;;;;;;;11.20;7.30;;;;;;;1.00;100.00;101318.66;694268;28;1194;-66
2022/12/03 01:34:30;;;;;;;10.40;7.55;;;;;;;0.99;100.00;101319.47;694191;28;1732;-67
2022/12/03 01:34:52;;;;;;;10.20;7.10;;;;;;;0.97;100.00;101315.94;694014;28;1162;-66
2022/12/03 01:35:13;;;;;;;10.63;7.22;;;;;;;0.98;100.00;101317.72;695360;28;1246;-66
2022/12/03 01:35:33;;;;;;;10.18;7.30;;;;;;;1.05;100.00;101320.56;692008;28;4336;-66
2022/12/03 01:35:53;;;;;;;10.73;7.37;;;;;;;1.10;100.00;101325.09;692181;28;1223;-65
2022/12/03 01:36:13;;;;;;;10.27;7.23;;;;;;;1.11;100.00;101323.38;695066;28;1357;-66
2022/12/03 01:36:34;;;;;;;10.60;7.13;;;;;;;1.10;100.00;101319.06;694981;28;1209;-66
2022/12/03 01:36:54;;;;;;;10.47;7.10;;;;;;;1.09;100.00;101319.88;693373;28;1005;-66
2022/12/03 01:37:16;;;;;;;10.25;7.13;;;;;;;1.09;100.00;101325.03;692253;28;1312;-66
2022/12/03 01:37:36;;;;;;;10.32;6.93;;;;;;;1.08;100.00;101318.09;692592;28;1128;-66
2022/12/03 01:37:56;;;;;;;10.27;6.80;;;;;;;1.07;100.00;101321.53;693398;28;1901;-66
2022/12/03 01:38:17;;;;;;;10.90;7.37;;;;;;;1.06;100.00;101325.78;694632;28;1387;-67
2022/12/03 01:38:38;;;;;;;10.63;7.20;;;;;;;1.05;100.00;101315.41;695983;28;4276;-66